createdAt,value
2023-05-25T00:00:03.852Z,99.90
2023-05-25T00:02:35.643Z,99.90
2023-05-25T00:05:04.736Z,99.90
2023-05-25T00:07:33.390Z,99.90
2023-05-25T00:10:02.065Z,99.90
2023-05-25T00:12:30.884Z,99.90
2023-05-25T00:14:59.533Z,99.90
2023-05-25T00:17:32.029Z,99.90
2023-05-25T00:20:08.081Z,99.90
2023-05-25T00:22:36.968Z,99.90
2023-05-25T00:25:06.548Z,99.90
2023-05-25T00:27:35.366Z,99.90
2023-05-25T00:30:04.096Z,99.90
2023-05-25T00:32:32.822Z,99.90
2023-05-25T00:35:03.040Z,99.90
2023-05-25T00:37:31.720Z,99.90
2023-05-25T00:40:00.292Z,99.90
2023-05-25T00:42:30.563Z,99.90
2023-05-25T00:44:59.266Z,99.90
2023-05-25T00:47:28.587Z,99.90
2023-05-25T00:49:57.649Z,99.90
2023-05-25T00:52:28.162Z,99.90
2023-05-25T00:55:00.697Z,99.90
2023-05-25T00:57:34.104Z,99.90
2023-05-25T01:00:07.259Z,99.90
2023-05-25T01:02:36.478Z,99.90
2023-05-25T01:05:10.130Z,99.90
2023-05-25T01:07:44.656Z,99.90
2023-05-25T01:10:16.794Z,99.90
2023-05-25T01:12:47.048Z,99.90
2023-05-25T01:15:15.807Z,99.90
2023-05-25T01:17:44.816Z,99.90
2023-05-25T01:20:13.714Z,99.90
2023-05-25T01:22:47.464Z,99.90
2023-05-25T01:25:21.874Z,99.90
2023-05-25T01:27:55.570Z,99.90
2023-05-25T01:30:27.316Z,99.90
2023-05-25T01:32:56.917Z,99.90
2023-05-25T01:35:26.350Z,99.90
2023-05-25T01:37:56.548Z,99.90
2023-05-25T01:40:25.243Z,99.90
2023-05-25T01:42:53.999Z,99.90
2023-05-25T01:45:22.865Z,99.90
2023-05-25T01:48:10.421Z,99.90
2023-05-25T01:50:51.165Z,99.90
2023-05-25T01:53:24.767Z,99.90
2023-05-25T01:55:59.216Z,99.90
2023-05-25T01:58:34.116Z,99.90
2023-05-25T02:01:03.441Z,99.90
2023-05-25T02:03:32.437Z,99.90
2023-05-25T02:06:01.269Z,99.90
2023-05-25T02:08:31.255Z,99.90
2023-05-25T02:11:03.525Z,99.90
2023-05-25T02:13:32.267Z,99.90
2023-05-25T02:16:01.027Z,99.90
2023-05-25T02:18:29.727Z,99.90
2023-05-25T02:20:58.347Z,99.90
2023-05-25T02:23:27.440Z,99.90
2023-05-25T02:25:57.585Z,99.90
2023-05-25T02:28:26.827Z,99.90
2023-05-25T02:30:56.654Z,99.90
2023-05-25T02:33:25.359Z,99.90
2023-05-25T02:35:54.105Z,99.90
2023-05-25T02:38:22.760Z,99.90
2023-05-25T02:40:52.348Z,99.90
2023-05-25T02:43:24.006Z,99.90
2023-05-25T02:45:52.788Z,99.90
2023-05-25T02:48:22.117Z,99.90
2023-05-25T02:50:50.902Z,99.90
2023-05-25T02:53:19.909Z,99.90
2023-05-25T02:55:49.361Z,99.90
2023-05-25T02:58:21.175Z,99.90
2023-05-25T03:01:18.765Z,99.90
2023-05-25T03:03:54.356Z,99.90
2023-05-25T03:06:26.270Z,99.90
2023-05-25T03:09:01.844Z,99.90
2023-05-25T03:11:30.687Z,99.90
2023-05-25T03:14:00.586Z,99.90
2023-05-25T03:16:36.563Z,99.90
2023-05-25T03:19:06.376Z,99.90
2023-05-25T03:21:38.325Z,99.90
2023-05-25T03:24:07.832Z,99.90
2023-05-25T03:26:36.543Z,99.90
2023-05-25T03:29:07.106Z,99.90
2023-05-25T03:31:37.666Z,99.90
2023-05-25T03:34:07.044Z,99.90
2023-05-25T03:36:39.104Z,99.90
2023-05-25T03:39:10.150Z,99.90
2023-05-25T03:41:39.140Z,99.90
2023-05-25T03:44:07.779Z,99.90
2023-05-25T03:46:38.085Z,99.90
2023-05-25T03:49:06.877Z,99.90
2023-05-25T03:51:36.660Z,99.90
2023-05-25T03:54:05.839Z,99.90
2023-05-25T03:56:34.620Z,99.90
2023-05-25T03:59:03.667Z,99.90
2023-05-25T04:01:32.460Z,99.90
2023-05-25T04:04:02.581Z,99.90
2023-05-25T04:06:31.533Z,99.90
2023-05-25T04:09:01.401Z,99.90
2023-05-25T04:11:30.417Z,99.90
2023-05-25T04:13:59.747Z,99.90
2023-05-25T04:16:31.250Z,99.90
2023-05-25T04:19:02.297Z,99.90
2023-05-25T04:21:31.086Z,99.90
2023-05-25T04:23:59.846Z,99.90
2023-05-25T04:26:28.648Z,99.90
2023-05-25T04:28:59.050Z,99.90
2023-05-25T04:31:36.463Z,99.90
2023-05-25T04:34:26.214Z,99.90
2023-05-25T04:37:08.885Z,99.90
2023-05-25T04:39:38.143Z,99.90
2023-05-25T04:42:07.808Z,99.90
2023-05-25T04:44:37.804Z,99.90
2023-05-25T04:47:08.275Z,99.90
2023-05-25T04:49:39.215Z,99.90
2023-05-25T04:52:10.059Z,99.90
2023-05-25T04:54:40.247Z,99.90
2023-05-25T04:57:10.104Z,99.90
2023-05-25T04:59:38.833Z,99.90
2023-05-25T05:02:08.681Z,99.90
2023-05-25T05:04:40.039Z,99.90
2023-05-25T05:07:09.374Z,99.90
2023-05-25T05:09:38.519Z,99.90
2023-05-25T05:12:10.588Z,99.90
2023-05-25T05:14:43.826Z,99.90
2023-05-25T05:17:13.075Z,99.90
2023-05-25T05:19:43.439Z,99.90
2023-05-25T05:22:15.970Z,99.90
2023-05-25T05:24:45.819Z,99.90
2023-05-25T05:27:20.756Z,99.90
2023-05-25T05:29:55.533Z,99.90
2023-05-25T05:32:24.555Z,99.90
2023-05-25T05:34:54.764Z,99.90
2023-05-25T05:37:42.255Z,99.90
2023-05-25T05:40:11.902Z,99.90
2023-05-25T05:42:43.507Z,99.90
2023-05-25T05:45:13.344Z,99.90
2023-05-25T05:47:41.971Z,99.90
2023-05-25T05:50:12.869Z,99.90
2023-05-25T05:52:42.929Z,99.90
2023-05-25T05:55:12.904Z,99.90
2023-05-25T05:57:43.142Z,99.90
2023-05-25T06:00:13.321Z,99.90
2023-05-25T06:02:45.010Z,99.90
2023-05-25T06:05:21.915Z,99.90
2023-05-25T06:07:51.802Z,99.90
2023-05-25T06:10:22.588Z,99.90
2023-05-25T06:12:51.582Z,99.90
2023-05-25T06:15:20.249Z,99.90
2023-05-25T06:17:51.459Z,99.90
2023-05-25T06:20:21.815Z,99.90
2023-05-25T06:22:50.515Z,99.90
2023-05-25T06:25:19.255Z,99.90
2023-05-25T06:27:48.501Z,99.90
2023-05-25T06:30:17.405Z,99.90
2023-05-25T06:32:46.775Z,99.90
2023-05-25T06:35:19.688Z,99.90
2023-05-25T06:37:51.848Z,99.90
2023-05-25T06:40:21.686Z,99.90
2023-05-25T06:42:50.449Z,99.90
2023-05-25T06:45:40.154Z,99.90
2023-05-25T06:48:08.908Z,99.90
2023-05-25T06:50:37.551Z,99.90
2023-05-25T06:53:07.709Z,99.90
2023-05-25T06:55:36.272Z,99.90
2023-05-25T06:58:05.076Z,99.90
2023-05-25T07:00:33.748Z,99.90
2023-05-25T07:03:02.717Z,99.90
2023-05-25T07:05:31.585Z,99.90
2023-05-25T07:08:00.302Z,99.90
2023-05-25T07:10:30.224Z,99.90
2023-05-25T07:12:58.990Z,99.90
2023-05-25T07:15:27.625Z,99.90
2023-05-25T07:17:57.335Z,99.90
2023-05-25T07:20:27.384Z,99.90
2023-05-25T07:22:56.320Z,99.90
2023-05-25T07:25:24.971Z,99.90
2023-05-25T07:27:56.073Z,99.90
2023-05-25T07:30:24.851Z,99.90
2023-05-25T07:32:53.550Z,99.90
2023-05-25T07:35:22.493Z,99.90
2023-05-25T07:37:58.065Z,99.90
2023-05-25T07:40:27.459Z,99.90
2023-05-25T07:42:57.845Z,99.90
2023-05-25T07:45:26.678Z,99.90
2023-05-25T07:47:55.501Z,99.90
2023-05-25T07:50:24.704Z,99.90
2023-05-25T07:52:53.387Z,99.90
2023-05-25T07:55:22.089Z,99.90
2023-05-25T07:57:51.561Z,99.90
2023-05-25T08:00:22.809Z,99.90
2023-05-25T08:02:51.717Z,99.90
2023-05-25T08:05:20.512Z,99.90
2023-05-25T08:07:49.200Z,99.90
2023-05-25T08:10:17.933Z,99.90
2023-05-25T08:12:49.676Z,99.90
2023-05-25T08:15:21.785Z,99.90
2023-05-25T08:17:51.078Z,99.90
2023-05-25T08:20:19.988Z,99.90
2023-05-25T08:22:48.756Z,99.90
2023-05-25T08:25:17.362Z,99.90
2023-05-25T08:27:46.071Z,99.90
2023-05-25T08:30:14.840Z,99.90
2023-05-25T08:32:45.228Z,99.90
2023-05-25T08:35:14.259Z,99.90
2023-05-25T08:37:43.482Z,99.90
2023-05-25T08:40:17.030Z,99.90
2023-05-25T08:42:46.552Z,99.90
2023-05-25T08:45:30.294Z,99.90
2023-05-25T08:48:09.269Z,99.90
2023-05-25T08:50:41.339Z,99.90
2023-05-25T08:53:12.772Z,99.90
2023-05-25T08:55:44.463Z,99.90
2023-05-25T08:58:18.269Z,99.90
2023-05-25T09:00:55.792Z,99.90
2023-05-25T09:03:26.183Z,99.90
2023-05-25T09:05:57.355Z,99.90
2023-05-25T09:08:27.119Z,99.90
2023-05-25T09:10:57.635Z,99.90
2023-05-25T09:13:26.330Z,99.90
2023-05-25T09:15:55.107Z,99.90
2023-05-25T09:18:25.173Z,99.90
2023-05-25T09:20:55.539Z,99.90
2023-05-25T09:23:24.780Z,99.90
2023-05-25T09:25:54.787Z,99.90
2023-05-25T09:28:27.440Z,99.90
2023-05-25T09:30:57.639Z,99.90
2023-05-25T09:33:27.938Z,99.90
2023-05-25T09:35:57.086Z,99.90
2023-05-25T09:38:26.066Z,99.90
2023-05-25T09:40:55.129Z,99.90
2023-05-25T09:43:39.757Z,99.90
2023-05-25T09:46:12.325Z,99.90
2023-05-25T09:48:43.358Z,99.90
2023-05-25T09:51:13.162Z,99.90
2023-05-25T09:53:42.221Z,99.90
2023-05-25T09:56:12.830Z,99.90
2023-05-25T09:58:42.303Z,99.90
2023-05-25T10:01:10.930Z,99.90
2023-05-25T10:03:59.709Z,99.90
2023-05-25T10:06:33.330Z,99.90
2023-05-25T10:09:02.411Z,99.90
2023-05-25T10:11:31.780Z,99.90
2023-05-25T10:14:06.148Z,99.90
2023-05-25T10:16:36.120Z,99.90
2023-05-25T10:19:11.448Z,99.90
2023-05-25T10:21:42.460Z,99.90
2023-05-25T10:24:18.222Z,99.90
2023-05-25T10:26:51.125Z,99.90
2023-05-25T10:29:21.519Z,99.90
2023-05-25T10:31:50.812Z,99.90
2023-05-25T10:34:22.533Z,99.90
2023-05-25T10:36:53.420Z,99.90
2023-05-25T10:39:24.932Z,99.90
2023-05-25T10:41:54.279Z,99.90
2023-05-25T10:44:23.444Z,99.90
2023-05-25T10:46:52.376Z,99.90
2023-05-25T10:49:35.506Z,99.90
2023-05-25T10:52:04.606Z,99.90
2023-05-25T10:54:36.239Z,99.90
2023-05-25T10:57:12.772Z,99.90
2023-05-25T10:59:45.675Z,99.90
2023-05-25T11:02:16.029Z,99.90
2023-05-25T11:04:49.077Z,99.90
2023-05-25T11:07:19.596Z,99.90
2023-05-25T11:09:59.407Z,99.90
2023-05-25T11:12:28.098Z,99.90
2023-05-25T11:15:15.930Z,99.90
2023-05-25T11:18:00.199Z,99.90
2023-05-25T11:20:31.423Z,99.90
2023-05-25T11:23:00.362Z,99.90
2023-05-25T11:25:40.425Z,99.90
2023-05-25T11:28:11.923Z,99.90
2023-05-25T11:30:43.099Z,99.90
2023-05-25T11:33:11.922Z,99.90
2023-05-25T11:35:45.467Z,99.90
2023-05-25T11:38:15.952Z,99.90
2023-05-25T11:40:44.740Z,99.90
2023-05-25T11:43:14.100Z,99.90
2023-05-25T11:45:42.821Z,99.90
2023-05-25T11:48:14.971Z,99.90
2023-05-25T11:50:45.271Z,99.90
2023-05-25T11:53:15.018Z,99.90
2023-05-25T11:55:55.618Z,99.90
2023-05-25T11:58:35.153Z,99.90
2023-05-25T12:01:18.730Z,99.90
2023-05-25T12:03:48.546Z,99.90
2023-05-25T12:06:29.484Z,99.90
2023-05-25T12:08:58.956Z,99.90
2023-05-25T12:11:32.447Z,99.90
2023-05-25T12:14:02.148Z,99.90
2023-05-25T12:16:32.389Z,99.90
2023-05-25T12:19:01.943Z,99.90
2023-05-25T12:21:33.154Z,99.90
2023-05-25T12:24:02.839Z,99.90
2023-05-25T12:26:31.589Z,99.90
2023-05-25T12:29:01.163Z,99.90
2023-05-25T12:31:31.518Z,99.90
2023-05-25T12:34:11.080Z,99.90
2023-05-25T12:36:46.645Z,99.90
2023-05-25T12:39:16.423Z,99.90
2023-05-25T12:41:51.270Z,99.90
2023-05-25T12:44:25.491Z,99.90
2023-05-25T12:46:56.744Z,99.90
2023-05-25T12:49:31.025Z,99.90
2023-05-25T12:52:03.838Z,99.90
2023-05-25T12:54:50.224Z,99.90
2023-05-25T12:57:19.092Z,99.20
2023-05-25T12:59:49.369Z,99.60
2023-05-25T13:02:18.158Z,99.40
2023-05-25T13:04:46.876Z,99.10
2023-05-25T13:07:17.552Z,96.90
2023-05-25T13:09:46.192Z,99.90
2023-05-25T13:12:14.832Z,97.80
2023-05-25T13:14:43.400Z,97.70
2023-05-25T13:17:12.122Z,98.20
2023-05-25T13:19:41.610Z,98.30
2023-05-25T13:22:10.381Z,98.50
2023-05-25T13:24:40.410Z,98.30
2023-05-25T13:27:09.019Z,98.00
2023-05-25T13:29:37.743Z,99.90
2023-05-25T13:32:07.233Z,99.40
2023-05-25T13:34:36.172Z,98.10
2023-05-25T13:37:05.016Z,97.60
2023-05-25T13:39:33.782Z,97.20
2023-05-25T13:42:03.812Z,96.50
2023-05-25T13:44:33.933Z,96.80
2023-05-25T13:47:02.682Z,98.10
2023-05-25T13:49:31.326Z,95.90
2023-05-25T13:52:00.012Z,96.00
2023-05-25T13:54:28.711Z,97.10
2023-05-25T13:56:57.347Z,98.60
2023-05-25T13:59:27.709Z,96.90
2023-05-25T14:01:56.608Z,96.30
2023-05-25T14:04:26.218Z,97.20
2023-05-25T14:06:55.563Z,98.50
2023-05-25T14:09:24.590Z,96.30
2023-05-25T14:11:53.817Z,97.50
2023-05-25T14:14:31.522Z,95.70
2023-05-25T14:17:03.045Z,95.00
2023-05-25T14:19:32.942Z,96.40
2023-05-25T14:22:12.504Z,96.20
2023-05-25T14:24:42.455Z,95.80
2023-05-25T14:27:11.273Z,95.90
2023-05-25T14:29:39.941Z,94.90
2023-05-25T14:32:09.963Z,94.90
2023-05-25T14:34:38.785Z,95.10
2023-05-25T14:37:07.508Z,95.00
2023-05-25T14:39:36.327Z,95.50
2023-05-25T14:42:05.976Z,94.70
2023-05-25T14:44:34.886Z,93.70
2023-05-25T14:47:04.033Z,93.80
2023-05-25T14:49:34.376Z,93.70
2023-05-25T14:52:03.225Z,94.70
2023-05-25T14:54:31.896Z,94.60
2023-05-25T14:57:01.859Z,93.90
2023-05-25T14:59:30.596Z,95.50
2023-05-25T15:01:59.378Z,95.20
2023-05-25T15:04:30.020Z,93.90
2023-05-25T15:07:00.657Z,92.70
2023-05-25T15:09:29.368Z,93.80
2023-05-25T15:11:58.259Z,95.40
2023-05-25T15:14:27.008Z,93.20
2023-05-25T15:16:56.290Z,93.90
2023-05-25T15:19:24.935Z,92.80
2023-05-25T15:21:53.686Z,91.60
2023-05-25T15:24:23.722Z,92.40
2023-05-25T15:26:52.494Z,91.70
2023-05-25T15:29:21.145Z,92.00
2023-05-25T15:31:53.624Z,92.50
2023-05-25T15:34:22.511Z,91.00
2023-05-25T15:36:51.392Z,91.50
2023-05-25T15:39:20.099Z,91.40
2023-05-25T15:41:50.177Z,91.60
2023-05-25T15:44:19.335Z,91.90
2023-05-25T15:46:48.022Z,91.30
2023-05-25T15:49:16.730Z,92.50
2023-05-25T15:51:45.347Z,91.00
2023-05-25T15:54:14.875Z,90.10
2023-05-25T15:56:43.881Z,90.40
2023-05-25T15:59:13.895Z,90.90
2023-05-25T16:01:42.621Z,91.50
2023-05-25T16:04:11.374Z,91.10
2023-05-25T16:06:40.204Z,89.30
2023-05-25T16:09:08.858Z,90.00
2023-05-25T16:11:37.553Z,88.20
2023-05-25T16:14:06.271Z,88.90
2023-05-25T16:16:36.522Z,89.40
2023-05-25T16:19:05.280Z,87.80
2023-05-25T16:21:37.728Z,85.50
2023-05-25T16:24:07.356Z,88.30
2023-05-25T16:26:36.138Z,88.10
2023-05-25T16:29:04.925Z,88.40
2023-05-25T16:31:35.593Z,89.10
2023-05-25T16:34:04.421Z,87.90
2023-05-25T16:36:33.051Z,87.60
2023-05-25T16:39:01.693Z,85.10
2023-05-25T16:41:30.492Z,85.40
2023-05-25T16:43:59.741Z,84.40
2023-05-25T16:46:28.536Z,85.70
2023-05-25T16:48:58.629Z,87.10
2023-05-25T16:51:27.489Z,85.50
2023-05-25T16:53:56.157Z,85.70
2023-05-25T16:56:26.368Z,84.00
2023-05-25T16:58:55.135Z,84.20
2023-05-25T17:01:23.888Z,87.50
2023-05-25T17:03:52.738Z,84.60
2023-05-25T17:06:22.871Z,86.60
2023-05-25T17:08:52.523Z,84.50
2023-05-25T17:11:26.132Z,85.30
2023-05-25T17:13:54.989Z,85.90
2023-05-25T17:16:23.826Z,84.80
2023-05-25T17:18:52.556Z,85.00
2023-05-25T17:21:22.919Z,85.20
2023-05-25T17:23:51.683Z,84.60
2023-05-25T17:26:20.313Z,85.10
2023-05-25T17:28:48.946Z,84.70
2023-05-25T17:31:17.668Z,85.50
2023-05-25T17:33:46.472Z,85.90
2023-05-25T17:36:15.211Z,87.70
2023-05-25T17:38:45.307Z,89.50
2023-05-25T17:41:14.009Z,89.00
2023-05-25T17:43:42.844Z,89.30
2023-05-25T17:46:11.660Z,89.80
2023-05-25T17:48:40.427Z,90.00
2023-05-25T17:51:09.159Z,90.60
2023-05-25T17:53:37.950Z,90.70
2023-05-25T17:56:08.633Z,91.30
2023-05-25T17:58:38.111Z,90.70
2023-05-25T18:01:06.959Z,91.60
2023-05-25T18:03:35.884Z,91.50
2023-05-25T18:06:05.036Z,92.50
2023-05-25T18:08:33.641Z,92.60
2023-05-25T18:11:02.297Z,92.90
2023-05-25T18:13:32.631Z,93.30
2023-05-25T18:16:01.326Z,93.60
2023-05-25T18:18:30.431Z,94.10
2023-05-25T18:20:59.484Z,94.70
2023-05-25T18:23:28.181Z,94.90
2023-05-25T18:25:56.987Z,95.70
2023-05-25T18:28:25.871Z,96.40
2023-05-25T18:30:56.187Z,96.80
2023-05-25T18:33:25.198Z,96.80
2023-05-25T18:35:54.065Z,97.70
2023-05-25T18:38:22.825Z,98.40
2023-05-25T18:40:51.612Z,98.30
2023-05-25T18:43:20.255Z,97.90
2023-05-25T18:45:49.179Z,98.50
2023-05-25T18:48:19.620Z,98.00
2023-05-25T18:50:48.489Z,99.40
2023-05-25T18:53:17.311Z,99.10
2023-05-25T18:55:46.256Z,99.90
2023-05-25T18:58:15.689Z,99.90
2023-05-25T19:00:44.504Z,99.90
2023-05-25T19:03:13.426Z,99.90
2023-05-25T19:05:44.085Z,99.90
2023-05-25T19:08:12.999Z,99.90
2023-05-25T19:10:42.806Z,99.90
2023-05-25T19:13:11.711Z,99.90
2023-05-25T19:15:40.703Z,99.90
2023-05-25T19:18:09.480Z,99.90
2023-05-25T19:20:38.147Z,99.90
2023-05-25T19:23:08.415Z,99.90
2023-05-25T19:25:37.399Z,99.90
2023-05-25T19:28:06.254Z,99.90
2023-05-25T19:30:35.136Z,99.90
2023-05-25T19:33:03.985Z,99.90
2023-05-25T19:35:32.762Z,99.90
2023-05-25T19:38:02.289Z,99.90
2023-05-25T19:40:33.069Z,99.90
2023-05-25T19:43:01.701Z,99.90
2023-05-25T19:45:30.656Z,99.90
2023-05-25T19:47:59.577Z,99.90
2023-05-25T19:50:30.637Z,99.90
2023-05-25T19:52:59.615Z,99.90
2023-05-25T19:55:28.604Z,99.90
2023-05-25T19:57:58.692Z,99.90
2023-05-25T20:00:27.524Z,99.90
2023-05-25T20:02:56.656Z,99.90
2023-05-25T20:05:25.398Z,99.90
2023-05-25T20:07:55.952Z,99.90
2023-05-25T20:10:25.479Z,99.90
2023-05-25T20:12:54.281Z,99.90
2023-05-25T20:15:24.335Z,99.90
2023-05-25T20:17:53.114Z,99.90
2023-05-25T20:20:21.920Z,99.90
2023-05-25T20:22:50.982Z,99.90
2023-05-25T20:25:19.600Z,99.90
2023-05-25T20:27:48.494Z,99.90
2023-05-25T20:30:17.791Z,99.90
2023-05-25T20:32:47.861Z,99.90
2023-05-25T20:35:19.383Z,99.90
2023-05-25T20:37:48.178Z,99.90
2023-05-25T20:40:16.978Z,99.90
2023-05-25T20:42:45.700Z,99.90
2023-05-25T20:45:14.523Z,99.90
2023-05-25T20:47:43.333Z,99.90
2023-05-25T20:50:13.634Z,99.90
2023-05-25T20:52:42.609Z,99.90
2023-05-25T20:55:11.482Z,99.90
2023-05-25T20:57:40.161Z,99.90
2023-05-25T21:00:10.206Z,99.90
2023-05-25T21:02:39.044Z,99.90
2023-05-25T21:05:08.082Z,99.90
2023-05-25T21:07:38.144Z,99.90
2023-05-25T21:10:07.716Z,99.90
2023-05-25T21:12:36.518Z,99.90
2023-05-25T21:15:05.816Z,99.90
2023-05-25T21:17:34.614Z,99.90
2023-05-25T21:20:03.462Z,99.90
2023-05-25T21:22:32.225Z,99.90
2023-05-25T21:25:02.435Z,99.90
2023-05-25T21:27:31.161Z,99.90
2023-05-25T21:29:59.857Z,99.90
2023-05-25T21:32:28.541Z,99.90
2023-05-25T21:34:57.384Z,99.90
2023-05-25T21:37:26.136Z,99.90
2023-05-25T21:39:54.804Z,99.90
2023-05-25T21:42:24.954Z,99.90
2023-05-25T21:44:53.998Z,99.90
2023-05-25T21:47:22.841Z,99.90
2023-05-25T21:49:51.614Z,99.90
2023-05-25T21:52:20.763Z,99.90
2023-05-25T21:54:49.637Z,99.90
2023-05-25T21:57:18.427Z,99.90
2023-05-25T21:59:48.589Z,99.90
2023-05-25T22:02:17.657Z,99.90
2023-05-25T22:04:46.443Z,99.90
2023-05-25T22:07:15.262Z,99.90
2023-05-25T22:09:44.109Z,99.90
2023-05-25T22:12:13.267Z,99.90
2023-05-25T22:14:42.063Z,99.90
2023-05-25T22:17:12.232Z,99.90
2023-05-25T22:19:43.184Z,99.90
2023-05-25T22:22:13.638Z,99.90
2023-05-25T22:24:42.325Z,99.90
2023-05-25T22:27:11.102Z,99.90
2023-05-25T22:29:39.756Z,99.90
2023-05-25T22:32:08.458Z,99.90
2023-05-25T22:34:38.566Z,99.90
2023-05-25T22:37:07.227Z,99.90
2023-05-25T22:39:35.958Z,99.90
2023-05-25T22:42:04.683Z,99.90
2023-05-25T22:44:33.450Z,99.90
2023-05-25T22:47:02.135Z,99.90
2023-05-25T22:49:30.862Z,99.90
2023-05-25T22:52:01.086Z,99.90
2023-05-25T22:54:29.873Z,99.90
2023-05-25T22:56:58.659Z,99.90
2023-05-25T22:59:27.794Z,99.90
2023-05-25T23:01:56.625Z,99.90
2023-05-25T23:04:25.404Z,99.90
2023-05-25T23:06:54.143Z,99.90
2023-05-25T23:09:24.242Z,99.90
2023-05-25T23:11:52.920Z,99.90
2023-05-25T23:14:21.838Z,99.90
2023-05-25T23:16:50.551Z,99.90
2023-05-25T23:19:19.927Z,99.90
2023-05-25T23:21:48.632Z,99.90
2023-05-25T23:24:17.462Z,99.90
2023-05-25T23:26:47.953Z,99.90
2023-05-25T23:29:16.762Z,99.90
2023-05-25T23:31:45.507Z,99.90
2023-05-25T23:34:14.176Z,99.90
2023-05-25T23:36:42.833Z,99.90
2023-05-25T23:39:11.639Z,99.90
2023-05-25T23:41:40.358Z,99.90
2023-05-25T23:44:10.387Z,99.90
2023-05-25T23:46:39.242Z,99.90
2023-05-25T23:49:07.901Z,99.90
2023-05-25T23:51:36.617Z,99.90
2023-05-25T23:54:06.892Z,99.90
2023-05-25T23:56:35.646Z,99.90
2023-05-25T23:59:04.280Z,99.90
